createdAt,value
2022-10-22T00:00:30.980Z,0
2022-10-22T00:16:28.015Z,0
2022-10-22T00:43:03.704Z,0
2022-10-22T00:48:22.947Z,0
2022-10-22T00:59:01.955Z,0
2022-10-22T01:15:01.005Z,0
2022-10-22T01:25:38.087Z,0
2022-10-22T01:30:57.452Z,0
2022-10-22T01:41:35.098Z,0
2022-10-22T02:08:11.904Z,0
2022-10-22T02:13:29.016Z,0
2022-10-22T02:29:51.180Z,0
2022-10-22T02:40:29.034Z,0
2022-10-22T02:45:49.230Z,0
2022-10-22T02:56:26.774Z,0
2022-10-22T03:01:47.138Z,0
2022-10-22T03:12:24.688Z,0
2022-10-22T03:28:23.694Z,0
2022-10-22T03:34:57.860Z,0
2022-10-22T03:39:03.921Z,0
2022-10-22T03:49:41.757Z,0
2022-10-22T03:54:59.839Z,0
2022-10-22T04:00:18.813Z,0
2022-10-22T04:10:57.675Z,0
2022-10-22T04:21:36.113Z,0
2022-10-22T04:26:54.895Z,0
2022-10-22T04:37:33.354Z,0
2022-10-22T04:53:31.435Z,0
2022-10-22T05:09:29.249Z,0
2022-10-22T05:16:03.408Z,0
2022-10-22T05:20:07.273Z,0
2022-10-22T05:52:02.525Z,17
2022-10-22T06:02:40.522Z,26.15
2022-10-22T06:07:59.485Z,28.35
2022-10-22T06:18:38.370Z,55.65
2022-10-22T06:29:17.415Z,73.55
2022-10-22T06:34:36.728Z,78.94
2022-10-22T06:45:14.904Z,99.85
2022-10-22T06:55:53.366Z,115.5
2022-10-22T07:07:47.107Z,123.35
2022-10-22T07:17:24.007Z,124.39
2022-10-22T07:27:50.830Z,128.39
2022-10-22T07:38:28.655Z,122.25
2022-10-22T07:43:48.382Z,159.84
2022-10-22T07:54:26.511Z,130.54
2022-10-22T08:05:04.927Z,119.79
2022-10-22T08:10:24.580Z,103.69
2022-10-22T08:21:03.252Z,146.1
2022-10-22T08:26:21.354Z,463.15
2022-10-22T08:31:40.368Z,240.25
2022-10-22T08:36:59.916Z,455.54
2022-10-22T08:52:58.481Z,406.59
2022-10-22T09:04:52.000Z,485.4
2022-10-22T09:09:08.592Z,46.58
2022-10-22T09:19:35.352Z,123.23
2022-10-22T09:24:54.840Z,266.83
2022-10-22T09:35:33.180Z,63.23
2022-10-22T09:51:29.520Z,191.28
2022-10-22T10:02:13.302Z,574.48
2022-10-22T10:07:27.379Z,303.33
2022-10-22T10:18:05.778Z,173.42
2022-10-22T10:23:25.426Z,46.17
2022-10-22T10:29:58.992Z,596.08
2022-10-22T10:34:03.438Z,270.17
2022-10-22T10:50:00.283Z,230.37
2022-10-22T11:00:38.507Z,428.92
2022-10-22T11:16:36.114Z,550.67
2022-10-22T11:27:13.739Z,585.68
2022-10-22T11:32:33.820Z,334.7
2022-10-22T11:43:12.138Z,36.73
2022-10-22T11:48:30.284Z,263.88
2022-10-22T11:59:09.422Z,248.92
2022-10-22T12:15:06.292Z,477.29
2022-10-22T12:21:40.452Z,13.03
2022-10-22T12:25:45.097Z,586.28
2022-10-22T12:36:25.082Z,493.24
2022-10-22T12:41:43.534Z,395.93
2022-10-22T12:57:41.024Z,212.83
2022-10-22T13:09:36.253Z,71.99
2022-10-22T13:13:50.385Z,265.04
2022-10-22T13:24:17.579Z,206.64
2022-10-22T13:34:55.306Z,398.79
2022-10-22T13:41:29.494Z,300.25
2022-10-22T13:50:51.903Z,206.89
2022-10-22T14:01:29.165Z,210.14
2022-10-22T14:06:49.246Z,194.5
2022-10-22T14:22:48.145Z,299.89
2022-10-22T14:33:27.318Z,219.59
2022-10-22T14:44:02.521Z,146.75
2022-10-22T14:49:21.989Z,126.7
2022-10-22T15:00:01.112Z,104.14
2022-10-22T15:21:30.470Z,114.5
2022-10-22T15:26:38.025Z,67.55
2022-10-22T15:31:57.296Z,59.44
2022-10-22T15:42:35.668Z,58.3
2022-10-22T15:48:03.070Z,55.15
2022-10-22T15:58:39.756Z,42.85
2022-10-22T16:09:09.288Z,31.4
2022-10-22T16:14:28.378Z,28.15
2022-10-22T16:25:07.663Z,13
2022-10-22T16:30:27.165Z,4
2022-10-22T16:35:45.975Z,0
2022-10-22T16:41:06.121Z,0
2022-10-22T16:46:24.961Z,0
2022-10-22T16:57:04.195Z,0
2022-10-22T17:13:02.347Z,0
2022-10-22T17:23:40.865Z,0
2022-10-22T17:29:00.911Z,0
2022-10-22T17:35:35.103Z,0
2022-10-22T17:39:40.479Z,0
2022-10-22T17:44:57.964Z,0
2022-10-22T17:50:17.294Z,0
2022-10-22T17:55:36.958Z,0
2022-10-22T18:06:14.897Z,0
2022-10-22T18:11:34.806Z,0
2022-10-22T18:22:12.666Z,0
2022-10-22T18:27:42.659Z,0
2022-10-22T18:38:10.105Z,0
2022-10-22T18:54:21.618Z,0
2022-10-22T19:04:47.376Z,0
2022-10-22T19:10:06.230Z,0
2022-10-22T19:20:45.137Z,0
2022-10-22T19:26:04.743Z,0
2022-10-22T19:36:52.362Z,0
2022-10-22T19:47:20.941Z,0
2022-10-22T20:03:18.880Z,0
2022-10-22T20:20:26.266Z,0
2022-10-22T20:30:28.525Z,0
2022-10-22T20:46:26.755Z,0
2022-10-22T21:02:24.206Z,0
2022-10-22T21:13:03.319Z,0
2022-10-22T21:18:22.268Z,0
2022-10-22T21:28:59.999Z,0
2022-10-22T21:39:39.710Z,0
2022-10-22T21:44:57.862Z,0
2022-10-22T21:51:32.025Z,0
2022-10-22T21:55:36.875Z,0
2022-10-22T22:00:56.294Z,0
2022-10-22T22:09:29.430Z,0
2022-10-22T22:11:35.465Z,0
2022-10-22T22:27:33.121Z,0
2022-10-22T22:39:49.350Z,0
2022-10-22T22:43:29.099Z,0
2022-10-22T22:54:07.457Z,0
2022-10-22T23:10:04.722Z,0
2022-10-22T23:20:43.322Z,0
2022-10-22T23:26:03.815Z,0
2022-10-22T23:31:22.048Z,0
2022-10-22T23:36:42.230Z,0
2022-10-22T23:52:40.047Z,0
